sensor_id;sensor_type;location;lat;lon;timestamp;pressure;altitude;pressure_sealevel;temperature;humidity
83152;BME280;73047;58.502;8.624;2023-09-30T00:02:04;99642.47;;;25.69;37.68
83152;BME280;73047;58.502;8.624;2023-09-30T00:04:30;99642.69;;;25.67;37.68
83152;BME280;73047;58.502;8.624;2023-09-30T00:06:55;99640.78;;;25.68;37.87
83152;BME280;73047;58.502;8.624;2023-09-30T00:09:21;99636.34;;;25.62;37.80
83152;BME280;73047;58.502;8.624;2023-09-30T00:11:47;99624.47;;;25.51;37.85
83152;BME280;73047;58.502;8.624;2023-09-30T00:14:12;99637.84;;;25.58;37.84
83152;BME280;73047;58.502;8.624;2023-09-30T00:16:38;99638.91;;;25.57;37.54
83152;BME280;73047;58.502;8.624;2023-09-30T00:19:03;99645.63;;;25.54;37.95
83152;BME280;73047;58.502;8.624;2023-09-30T00:21:29;99631.75;;;25.51;37.60
83152;BME280;73047;58.502;8.624;2023-09-30T00:23:55;99646.34;;;25.50;37.95
83152;BME280;73047;58.502;8.624;2023-09-30T00:26:20;99638.66;;;25.46;37.94
83152;BME280;73047;58.502;8.624;2023-09-30T00:28:47;99657.59;;;25.46;37.63
83152;BME280;73047;58.502;8.624;2023-09-30T00:31:12;99654.88;;;25.46;37.80
83152;BME280;73047;58.502;8.624;2023-09-30T00:33:37;99651.59;;;25.44;37.95
83152;BME280;73047;58.502;8.624;2023-09-30T00:36:09;99663.47;;;25.43;37.73
83152;BME280;73047;58.502;8.624;2023-09-30T00:38:36;99658.53;;;25.40;37.95
83152;BME280;73047;58.502;8.624;2023-09-30T00:41:02;99661.25;;;25.40;37.59
83152;BME280;73047;58.502;8.624;2023-09-30T00:43:27;99652.31;;;25.40;37.79
83152;BME280;73047;58.502;8.624;2023-09-30T00:46:02;99636.66;;;25.30;37.95
83152;BME280;73047;58.502;8.624;2023-09-30T00:48:29;99656.31;;;25.37;37.97
83152;BME280;73047;58.502;8.624;2023-09-30T00:50:54;99650.31;;;25.35;37.82
83152;BME280;73047;58.502;8.624;2023-09-30T00:53:21;99650.78;;;25.32;37.65
83152;BME280;73047;58.502;8.624;2023-09-30T00:55:46;99654.53;;;25.31;37.80
83152;BME280;73047;58.502;8.624;2023-09-30T00:58:12;99649.00;;;25.26;37.85
83152;BME280;73047;58.502;8.624;2023-09-30T01:00:37;99667.47;;;25.29;37.84
83152;BME280;73047;58.502;8.624;2023-09-30T01:03:03;99662.88;;;25.30;37.84
83152;BME280;73047;58.502;8.624;2023-09-30T01:05:30;99650.53;;;25.22;37.60
83152;BME280;73047;58.502;8.624;2023-09-30T01:07:55;99664.75;;;25.29;37.53
83152;BME280;73047;58.502;8.624;2023-09-30T01:10:21;99670.63;;;25.26;37.67
83152;BME280;73047;58.502;8.624;2023-09-30T01:12:47;99672.28;;;25.27;37.63
83152;BME280;73047;58.502;8.624;2023-09-30T01:15:13;99654.41;;;25.14;37.81
83152;BME280;73047;58.502;8.624;2023-09-30T01:17:38;99660.66;;;25.27;37.83
83152;BME280;73047;58.502;8.624;2023-09-30T01:20:03;99672.75;;;25.24;37.68
83152;BME280;73047;58.502;8.624;2023-09-30T01:22:33;99657.00;;;25.21;37.88
83152;BME280;73047;58.502;8.624;2023-09-30T01:24:59;99657.00;;;25.21;37.75
83152;BME280;73047;58.502;8.624;2023-09-30T01:27:24;99657.00;;;25.21;37.84
83152;BME280;73047;58.502;8.624;2023-09-30T01:29:50;99654.31;;;25.21;37.79
83152;BME280;73047;58.502;8.624;2023-09-30T01:32:16;99650.16;;;25.19;37.90
83152;BME280;73047;58.502;8.624;2023-09-30T01:34:41;99658.88;;;25.21;37.59
83152;BME280;73047;58.502;8.624;2023-09-30T01:37:07;99655.56;;;25.19;37.71
83152;BME280;73047;58.502;8.624;2023-09-30T01:39:32;99666.16;;;25.20;37.73
83152;BME280;73047;58.502;8.624;2023-09-30T01:41:59;99662.03;;;25.17;37.71
83152;BME280;73047;58.502;8.624;2023-09-30T01:44:24;99656.38;;;25.19;37.37
83152;BME280;73047;58.502;8.624;2023-09-30T01:46:51;99649.00;;;25.14;37.67
83152;BME280;73047;58.502;8.624;2023-09-30T01:49:16;99649.00;;;25.14;37.21
83152;BME280;73047;58.502;8.624;2023-09-30T01:51:43;99653.34;;;25.15;37.58
83152;BME280;73047;58.502;8.624;2023-09-30T01:54:09;99643.34;;;25.16;37.62
83152;BME280;73047;58.502;8.624;2023-09-30T01:56:34;99646.28;;;25.14;37.73
83152;BME280;73047;58.502;8.624;2023-09-30T01:59:00;99632.53;;;25.16;37.65
83152;BME280;73047;58.502;8.624;2023-09-30T02:01:25;99632.19;;;25.12;37.45
83152;BME280;73047;58.502;8.624;2023-09-30T02:03:50;99635.72;;;25.13;37.58
83152;BME280;73047;58.502;8.624;2023-09-30T02:06:16;99628.66;;;25.12;37.61
83152;BME280;73047;58.502;8.624;2023-09-30T02:08:41;99639.00;;;25.15;37.70
83152;BME280;73047;58.502;8.624;2023-09-30T02:11:10;99632.66;;;25.09;37.40
83152;BME280;73047;58.502;8.624;2023-09-30T02:13:35;99625.63;;;25.08;37.61
83152;BME280;73047;58.502;8.624;2023-09-30T02:16:01;99624.34;;;25.11;37.50
83152;BME280;73047;58.502;8.624;2023-09-30T02:18:27;99625.16;;;25.11;37.61
83152;BME280;73047;58.502;8.624;2023-09-30T02:23:18;99612.06;;;24.97;37.23
83152;BME280;73047;58.502;8.624;2023-09-30T02:25:44;99633.97;;;25.07;37.52
83152;BME280;73047;58.502;8.624;2023-09-30T02:28:09;99631.25;;;25.07;37.20
83152;BME280;73047;58.502;8.624;2023-09-30T02:30:36;99629.72;;;25.11;37.22
83152;BME280;73047;58.502;8.624;2023-09-30T02:33:02;99591.25;;;24.85;37.26
83152;BME280;73047;58.502;8.624;2023-09-30T02:35:28;99607.13;;;24.94;37.13
83152;BME280;73047;58.502;8.624;2023-09-30T02:37:54;99623.97;;;25.07;37.24
83152;BME280;73047;58.502;8.624;2023-09-30T02:40:20;99621.63;;;25.11;37.22
83152;BME280;73047;58.502;8.624;2023-09-30T02:42:46;99634.16;;;25.05;37.39
83152;BME280;73047;58.502;8.624;2023-09-30T02:45:13;99631.25;;;25.07;37.42
83152;BME280;73047;58.502;8.624;2023-09-30T02:47:39;99620.91;;;25.04;37.29
83152;BME280;73047;58.502;8.624;2023-09-30T02:50:06;99626.91;;;25.06;37.21
83152;BME280;73047;58.502;8.624;2023-09-30T02:52:34;99621.72;;;25.04;36.99
83152;BME280;73047;58.502;8.624;2023-09-30T02:54:59;99635.22;;;25.04;37.09
83152;BME280;73047;58.502;8.624;2023-09-30T02:57:25;99629.81;;;25.04;37.03
83152;BME280;73047;58.502;8.624;2023-09-30T02:59:52;99622.78;;;25.03;37.17
83152;BME280;73047;58.502;8.624;2023-09-30T03:02:19;99626.91;;;25.06;37.00
83152;BME280;73047;58.502;8.624;2023-09-30T03:04:46;99624.41;;;25.04;37.06
83152;BME280;73047;58.502;8.624;2023-09-30T03:07:13;99637.72;;;25.06;37.09
83152;BME280;73047;58.502;8.624;2023-09-30T03:09:38;99624.06;;;25.01;37.24
83152;BME280;73047;58.502;8.624;2023-09-30T03:12:04;99623.44;;;24.99;36.89
83152;BME280;73047;58.502;8.624;2023-09-30T03:14:30;99630.72;;;24.98;36.89
83152;BME280;73047;58.502;8.624;2023-09-30T03:16:59;99635.91;;;25.00;37.06
83152;BME280;73047;58.502;8.624;2023-09-30T03:19:25;99633.66;;;24.97;36.92
83152;BME280;73047;58.502;8.624;2023-09-30T03:21:50;99636.97;;;24.99;36.99
83152;BME280;73047;58.502;8.624;2023-09-30T03:24:15;99637.44;;;24.96;36.91
83152;BME280;73047;58.502;8.624;2023-09-30T03:26:41;99637.44;;;24.96;36.93
83152;BME280;73047;58.502;8.624;2023-09-30T03:29:07;99638.84;;;24.98;36.71
83152;BME280;73047;58.502;8.624;2023-09-30T03:31:34;99645.06;;;24.99;36.72
83152;BME280;73047;58.502;8.624;2023-09-30T03:34:00;99658.56;;;24.99;36.70
83152;BME280;73047;58.502;8.624;2023-09-30T03:36:26;99659.38;;;24.99;36.41
83152;BME280;73047;58.502;8.624;2023-09-30T03:38:52;99662.09;;;24.99;36.87
83152;BME280;73047;58.502;8.624;2023-09-30T03:41:21;99660.81;;;25.02;36.71
83152;BME280;73047;58.502;8.624;2023-09-30T03:43:46;99661.66;;;25.02;36.38
83152;BME280;73047;58.502;8.624;2023-09-30T03:46:12;99658.56;;;24.99;36.46
83152;BME280;73047;58.502;8.624;2023-09-30T03:48:38;99654.22;;;24.98;36.78
83152;BME280;73047;58.502;8.624;2023-09-30T03:51:17;99653.78;;;25.01;36.55
83152;BME280;73047;58.502;8.624;2023-09-30T03:53:45;99645.69;;;25.01;36.34
83152;BME280;73047;58.502;8.624;2023-09-30T03:56:11;99643.41;;;24.98;36.33
83152;BME280;73047;58.502;8.624;2023-09-30T03:58:38;99639.06;;;24.97;36.35
83152;BME280;73047;58.502;8.624;2023-09-30T04:01:04;99645.06;;;24.99;36.49
83152;BME280;73047;58.502;8.624;2023-09-30T04:03:29;99641.53;;;24.98;36.23
83152;BME280;73047;58.502;8.624;2023-09-30T04:05:55;99652.09;;;25.00;36.07
83152;BME280;73047;58.502;8.624;2023-09-30T04:08:21;99643.41;;;24.98;36.32
83152;BME280;73047;58.502;8.624;2023-09-30T04:10:47;99649.63;;;24.98;36.08
83152;BME280;73047;58.502;8.624;2023-09-30T04:13:13;99639.06;;;24.97;36.04
83152;BME280;73047;58.502;8.624;2023-09-30T04:15:38;99641.53;;;24.98;36.33
83152;BME280;73047;58.502;8.624;2023-09-30T04:18:04;99627.75;;;24.88;36.12
83152;BME280;73047;58.502;8.624;2023-09-30T04:20:33;99646.13;;;24.98;36.18
83152;BME280;73047;58.502;8.624;2023-09-30T04:22:58;99641.53;;;24.98;36.07
83152;BME280;73047;58.502;8.624;2023-09-30T04:25:24;99643.41;;;24.98;36.10
83152;BME280;73047;58.502;8.624;2023-09-30T04:27:50;99650.09;;;24.95;35.96
83152;BME280;73047;58.502;8.624;2023-09-30T04:30:16;99654.44;;;24.96;35.88
83152;BME280;73047;58.502;8.624;2023-09-30T04:32:42;99645.75;;;24.94;36.03
83152;BME280;73047;58.502;8.624;2023-09-30T04:35:07;99657.16;;;24.96;36.13
83152;BME280;73047;58.502;8.624;2023-09-30T04:37:33;99640.69;;;24.86;35.85
83152;BME280;73047;58.502;8.624;2023-09-30T04:39:59;99655.28;;;24.97;35.90
83152;BME280;73047;58.502;8.624;2023-09-30T04:42:24;99663.38;;;24.97;35.87
83152;BME280;73047;58.502;8.624;2023-09-30T04:44:52;99659.84;;;24.96;35.96
83152;BME280;73047;58.502;8.624;2023-09-30T04:47:20;99659.03;;;24.96;35.60
83152;BME280;73047;58.502;8.624;2023-09-30T04:49:46;99662.19;;;24.93;35.89
83152;BME280;73047;58.502;8.624;2023-09-30T04:52:12;99657.38;;;24.95;35.58
83152;BME280;73047;58.502;8.624;2023-09-30T04:54:37;99660.09;;;24.95;35.91
83152;BME280;73047;58.502;8.624;2023-09-30T04:57:03;99669.84;;;24.96;35.53
83152;BME280;73047;58.502;8.624;2023-09-30T04:59:28;99664.09;;;24.92;35.72
83152;BME280;73047;58.502;8.624;2023-09-30T05:01:54;99673.34;;;24.96;35.64
83152;BME280;73047;58.502;8.624;2023-09-30T05:04:20;99667.13;;;24.96;35.74
83152;BME280;73047;58.502;8.624;2023-09-30T05:06:45;99670.88;;;24.95;35.72
83152;BME280;73047;58.502;8.624;2023-09-30T05:09:11;99673.59;;;24.95;35.71
83152;BME280;73047;58.502;8.624;2023-09-30T05:11:37;99682.75;;;24.94;35.68
83152;BME280;73047;58.502;8.624;2023-09-30T05:14:02;99680.28;;;24.92;35.60
83152;BME280;73047;58.502;8.624;2023-09-30T05:16:30;99689.81;;;24.95;35.67
83152;BME280;73047;58.502;8.624;2023-09-30T05:18:56;99688.16;;;24.94;36.18
83152;BME280;73047;58.502;8.624;2023-09-30T05:21:22;99690.25;;;24.92;35.60
83152;BME280;73047;58.502;8.624;2023-09-30T05:23:47;99681.09;;;24.93;35.54
83152;BME280;73047;58.502;8.624;2023-09-30T05:26:12;99694.00;;;24.91;35.73
83152;BME280;73047;58.502;8.624;2023-09-30T05:28:38;99679.47;;;24.92;35.66
83152;BME280;73047;58.502;8.624;2023-09-30T05:31:04;99691.91;;;24.93;35.76
83152;BME280;73047;58.502;8.624;2023-09-30T05:33:30;99704.34;;;24.94;35.49
83152;BME280;73047;58.502;8.624;2023-09-30T05:35:55;99699.78;;;24.94;35.70
83152;BME280;73047;58.502;8.624;2023-09-30T05:38:21;99707.88;;;24.94;35.67
83152;BME280;73047;58.502;8.624;2023-09-30T05:40:48;99721.63;;;24.93;35.34
83152;BME280;73047;58.502;8.624;2023-09-30T05:43:14;99718.91;;;24.93;35.71
83152;BME280;73047;58.502;8.624;2023-09-30T05:45:39;99710.19;;;24.91;35.48
83152;BME280;73047;58.502;8.624;2023-09-30T05:48:15;99718.91;;;24.93;35.49
83152;BME280;73047;58.502;8.624;2023-09-30T05:50:41;99724.09;;;24.94;35.50
83152;BME280;73047;58.502;8.624;2023-09-30T05:53:08;99723.50;;;24.92;35.63
83152;BME280;73047;58.502;8.624;2023-09-30T05:55:35;99728.91;;;24.92;35.61
83152;BME280;73047;58.502;8.624;2023-09-30T05:58:01;99726.13;;;25.40;38.35
83152;BME280;73047;58.502;8.624;2023-09-30T06:00:27;99726.59;;;25.49;35.57
83152;BME280;73047;58.502;8.624;2023-09-30T06:02:56;99721.31;;;25.54;35.45
83152;BME280;73047;58.502;8.624;2023-09-30T06:05:22;99720.38;;;25.60;35.38
83152;BME280;73047;58.502;8.624;2023-09-30T06:07:49;99722.78;;;25.80;36.73
83152;BME280;73047;58.502;8.624;2023-09-30T06:10:14;99723.22;;;25.65;37.56
83152;BME280;73047;58.502;8.624;2023-09-30T06:12:50;99712.13;;;26.25;34.21
83152;BME280;73047;58.502;8.624;2023-09-30T06:15:20;99714.84;;;26.14;33.68
83152;BME280;73047;58.502;8.624;2023-09-30T06:17:50;99723.34;;;26.06;35.06
83152;BME280;73047;58.502;8.624;2023-09-30T06:20:17;99710.75;;;25.99;34.77
83152;BME280;73047;58.502;8.624;2023-09-30T06:22:45;99722.53;;;26.05;35.23
83152;BME280;73047;58.502;8.624;2023-09-30T06:25:15;99716.63;;;26.08;34.50
83152;BME280;73047;58.502;8.624;2023-09-30T06:27:44;99729.94;;;26.10;37.21
83152;BME280;73047;58.502;8.624;2023-09-30T06:30:10;99720.16;;;25.97;33.94
83152;BME280;73047;58.502;8.624;2023-09-30T06:32:36;99733.34;;;25.82;34.20
83152;BME280;73047;58.502;8.624;2023-09-30T06:35:04;99737.09;;;25.69;35.07
83152;BME280;73047;58.502;8.624;2023-09-30T06:37:32;99731.56;;;25.75;34.85
83152;BME280;73047;58.502;8.624;2023-09-30T06:39:57;99726.41;;;25.74;34.14
83152;BME280;73047;58.502;8.624;2023-09-30T06:42:24;99733.94;;;25.72;34.62
83152;BME280;73047;58.502;8.624;2023-09-30T06:44:49;99735.44;;;25.68;34.52
83152;BME280;73047;58.502;8.624;2023-09-30T06:47:15;99747.91;;;25.69;34.77
83152;BME280;73047;58.502;8.624;2023-09-30T06:49:41;99747.44;;;25.72;34.55
83152;BME280;73047;58.502;8.624;2023-09-30T06:52:06;99746.47;;;25.66;34.66
83152;BME280;73047;58.502;8.624;2023-09-30T06:54:32;99750.00;;;25.67;34.58
83152;BME280;73047;58.502;8.624;2023-09-30T06:56:58;99755.81;;;25.94;37.22
83152;BME280;73047;58.502;8.624;2023-09-30T06:59:23;99750.03;;;26.14;35.01
83152;BME280;73047;58.502;8.624;2023-09-30T07:01:50;99762.97;;;26.23;36.35
83152;BME280;73047;58.502;8.624;2023-09-30T07:04:16;99753.56;;;26.26;35.14
83152;BME280;73047;58.502;8.624;2023-09-30T07:06:41;99757.81;;;26.22;33.95
83152;BME280;73047;58.502;8.624;2023-09-30T07:09:06;99752.16;;;26.00;33.95
83152;BME280;73047;58.502;8.624;2023-09-30T07:11:32;99761.91;;;25.89;34.13
83152;BME280;73047;58.502;8.624;2023-09-30T07:13:58;99750.06;;;25.79;34.46
83152;BME280;73047;58.502;8.624;2023-09-30T07:16:24;99739.44;;;25.65;34.29
83152;BME280;73047;58.502;8.624;2023-09-30T07:18:49;99759.00;;;25.91;36.86
83152;BME280;73047;58.502;8.624;2023-09-30T07:21:15;99768.97;;;26.02;35.73
83152;BME280;73047;58.502;8.624;2023-09-30T07:23:41;99771.22;;;26.05;35.24
83152;BME280;73047;58.502;8.624;2023-09-30T07:26:07;99760.03;;;26.01;34.89
83152;BME280;73047;58.502;8.624;2023-09-30T07:28:33;99777.22;;;26.19;34.85
83152;BME280;73047;58.502;8.624;2023-09-30T07:30:58;99772.88;;;26.06;35.60
83152;BME280;73047;58.502;8.624;2023-09-30T07:33:24;99786.84;;;26.15;34.86
83152;BME280;73047;58.502;8.624;2023-09-30T07:35:49;99765.09;;;26.10;33.90
83152;BME280;73047;58.502;8.624;2023-09-30T07:38:15;99793.66;;;26.17;33.99
83152;BME280;73047;58.502;8.624;2023-09-30T07:40:40;99797.56;;;26.21;35.61
83152;BME280;73047;58.502;8.624;2023-09-30T07:43:06;99795.56;;;26.17;34.17
83152;BME280;73047;58.502;8.624;2023-09-30T07:45:32;99807.13;;;26.36;33.99
83152;BME280;73047;58.502;8.624;2023-09-30T07:47:57;99808.38;;;26.45;35.77
83152;BME280;73047;58.502;8.624;2023-09-30T07:50:24;99813.22;;;26.43;33.47
83152;BME280;73047;58.502;8.624;2023-09-30T07:52:49;99821.22;;;26.26;33.63
83152;BME280;73047;58.502;8.624;2023-09-30T07:55:15;99825.78;;;26.14;33.88
83152;BME280;73047;58.502;8.624;2023-09-30T07:57:41;99827.81;;;26.07;33.86
83152;BME280;73047;58.502;8.624;2023-09-30T08:00:08;99831.31;;;25.95;33.99
83152;BME280;73047;58.502;8.624;2023-09-30T08:02:40;99799.78;;;25.78;34.02
83152;BME280;73047;58.502;8.624;2023-09-30T08:05:05;99836.72;;;25.95;34.04
83152;BME280;73047;58.502;8.624;2023-09-30T08:07:31;99838.84;;;25.93;33.99
83152;BME280;73047;58.502;8.624;2023-09-30T08:09:56;99846.38;;;25.91;34.01
83152;BME280;73047;58.502;8.624;2023-09-30T08:12:21;99837.66;;;25.89;34.10
83152;BME280;73047;58.502;8.624;2023-09-30T08:14:47;99851.19;;;25.89;34.11
83152;BME280;73047;58.502;8.624;2023-09-30T08:17:12;99853.28;;;25.87;34.28
83152;BME280;73047;58.502;8.624;2023-09-30T08:19:37;99860.00;;;25.85;34.03
83152;BME280;73047;58.502;8.624;2023-09-30T08:22:03;99839.63;;;25.70;34.08
83152;BME280;73047;58.502;8.624;2023-09-30T08:24:29;99869.88;;;25.79;34.22
83152;BME280;73047;58.502;8.624;2023-09-30T08:26:54;99863.63;;;25.79;34.44
83152;BME280;73047;58.502;8.624;2023-09-30T08:29:21;99863.50;;;25.73;34.31
83152;BME280;73047;58.502;8.624;2023-09-30T08:31:47;99838.97;;;25.57;34.18
83152;BME280;73047;58.502;8.624;2023-09-30T08:34:12;99871.25;;;25.70;34.58
83152;BME280;73047;58.502;8.624;2023-09-30T08:36:40;99871.69;;;25.67;34.56
83152;BME280;73047;58.502;8.624;2023-09-30T08:39:05;99872.97;;;25.64;34.60
83152;BME280;73047;58.502;8.624;2023-09-30T08:41:33;99877.56;;;25.64;34.45
83152;BME280;73047;58.502;8.624;2023-09-30T08:44:03;99881.53;;;25.61;34.43
83152;BME280;73047;58.502;8.624;2023-09-30T08:46:35;99871.78;;;25.60;34.83
83152;BME280;73047;58.502;8.624;2023-09-30T08:49:02;99882.47;;;25.85;34.38
83152;BME280;73047;58.502;8.624;2023-09-30T08:51:29;99880.94;;;25.89;34.28
83152;BME280;73047;58.502;8.624;2023-09-30T08:53:56;99885.63;;;25.82;34.67
83152;BME280;73047;58.502;8.624;2023-09-30T08:56:27;99885.88;;;25.81;34.45
83152;BME280;73047;58.502;8.624;2023-09-30T08:58:57;99882.19;;;25.75;34.56
83152;BME280;73047;58.502;8.624;2023-09-30T09:01:27;99896.44;;;25.82;34.84
83152;BME280;73047;58.502;8.624;2023-09-30T09:03:53;99907.63;;;25.86;34.49
83152;BME280;73047;58.502;8.624;2023-09-30T09:06:20;99903.03;;;25.86;34.57
83152;BME280;73047;58.502;8.624;2023-09-30T09:08:46;99911.75;;;25.88;35.20
83152;BME280;73047;58.502;8.624;2023-09-30T09:11:12;99873.66;;;25.60;34.58
83152;BME280;73047;58.502;8.624;2023-09-30T09:13:49;99921.66;;;25.94;34.76
83152;BME280;73047;58.502;8.624;2023-09-30T09:16:17;99931.41;;;25.95;35.49
83152;BME280;73047;58.502;8.624;2023-09-30T09:18:44;99918.47;;;25.97;35.32
83152;BME280;73047;58.502;8.624;2023-09-30T09:21:11;99929.56;;;26.08;36.47
83152;BME280;73047;58.502;8.624;2023-09-30T09:23:42;99925.28;;;26.77;35.07
83152;BME280;73047;58.502;8.624;2023-09-30T09:26:08;99922.09;;;26.56;35.31
83152;BME280;73047;58.502;8.624;2023-09-30T09:28:35;99913.72;;;26.81;33.95
83152;BME280;73047;58.502;8.624;2023-09-30T09:31:24;99925.16;;;27.47;33.13
83152;BME280;73047;58.502;8.624;2023-09-30T09:33:50;99915.66;;;27.61;32.25
83152;BME280;73047;58.502;8.624;2023-09-30T09:36:17;99931.03;;;27.44;35.23
83152;BME280;73047;58.502;8.624;2023-09-30T09:38:50;99931.66;;;27.06;34.88
83152;BME280;73047;58.502;8.624;2023-09-30T09:41:19;99921.72;;;27.11;33.86
83152;BME280;73047;58.502;8.624;2023-09-30T09:43:48;99933.03;;;27.08;34.66
83152;BME280;73047;58.502;8.624;2023-09-30T09:46:16;99919.41;;;27.03;33.69
83152;BME280;73047;58.502;8.624;2023-09-30T09:48:45;99924.56;;;26.70;33.22
83152;BME280;73047;58.502;8.624;2023-09-30T09:51:11;99926.84;;;27.76;32.54
83152;BME280;73047;58.502;8.624;2023-09-30T09:53:39;99911.94;;;26.87;32.72
83152;BME280;73047;58.502;8.624;2023-09-30T09:56:08;99916.22;;;26.59;33.34
83152;BME280;73047;58.502;8.624;2023-09-30T09:58:36;99925.28;;;26.53;33.42
83152;BME280;73047;58.502;8.624;2023-09-30T10:01:07;99926.13;;;26.54;35.86
83152;BME280;73047;58.502;8.624;2023-09-30T10:03:35;99929.59;;;27.53;35.67
83152;BME280;73047;58.502;8.624;2023-09-30T10:06:01;99933.88;;;27.49;34.69
83152;BME280;73047;58.502;8.624;2023-09-30T10:08:37;99944.22;;;27.24;35.74
83152;BME280;73047;58.502;8.624;2023-09-30T10:11:04;99944.69;;;27.20;34.69
83152;BME280;73047;58.502;8.624;2023-09-30T10:13:58;99948.53;;;27.36;35.37
83152;BME280;73047;58.502;8.624;2023-09-30T10:19:17;99949.72;;;27.29;36.37
83152;BME280;73047;58.502;8.624;2023-09-30T10:24:56;99964.97;;;27.87;32.49
83152;BME280;73047;58.502;8.624;2023-09-30T10:29:48;99960.75;;;27.50;33.28
83152;BME280;73047;58.502;8.624;2023-09-30T10:32:14;99963.81;;;27.42;33.76
83152;BME280;73047;58.502;8.624;2023-09-30T10:34:47;99967.97;;;27.45;33.57
83152;BME280;73047;58.502;8.624;2023-09-30T10:37:22;99968.16;;;27.67;38.58
83152;BME280;73047;58.502;8.624;2023-09-30T10:39:56;99971.06;;;27.77;32.60
83152;BME280;73047;58.502;8.624;2023-09-30T10:42:45;99975.22;;;27.68;33.09
83152;BME280;73047;58.502;8.624;2023-09-30T10:51:14;99990.03;;;27.37;33.64
83152;BME280;73047;58.502;8.624;2023-09-30T10:53:45;100000.88;;;27.89;33.96
83152;BME280;73047;58.502;8.624;2023-09-30T10:56:10;99994.84;;;27.87;34.01
83152;BME280;73047;58.502;8.624;2023-09-30T10:58:47;99992.16;;;27.35;33.16
83152;BME280;73047;58.502;8.624;2023-09-30T11:01:17;100010.66;;;27.90;32.15
83152;BME280;73047;58.502;8.624;2023-09-30T11:03:43;100006.28;;;27.37;33.29
83152;BME280;73047;58.502;8.624;2023-09-30T11:06:17;99980.84;;;30.22;34.00
83152;BME280;73047;58.502;8.624;2023-09-30T11:08:47;99999.91;;;32.01;29.44
83152;BME280;73047;58.502;8.624;2023-09-30T11:11:15;100000.47;;;33.10;31.93
83152;BME280;73047;58.502;8.624;2023-09-30T11:13:41;100000.06;;;31.11;28.68
83152;BME280;73047;58.502;8.624;2023-09-30T11:16:07;100011.34;;;28.76;31.20
83152;BME280;73047;58.502;8.624;2023-09-30T11:18:34;100016.13;;;27.78;32.97
83152;BME280;73047;58.502;8.624;2023-09-30T11:21:10;100013.09;;;27.51;33.20
83152;BME280;73047;58.502;8.624;2023-09-30T11:23:37;100019.38;;;27.40;34.32
83152;BME280;73047;58.502;8.624;2023-09-30T11:26:03;100014.22;;;27.78;33.96
83152;BME280;73047;58.502;8.624;2023-09-30T11:28:38;100009.91;;;27.94;32.83
83152;BME280;73047;58.502;8.624;2023-09-30T11:31:08;100028.09;;;27.94;32.35
83152;BME280;73047;58.502;8.624;2023-09-30T11:33:47;100030.88;;;27.99;34.64
83152;BME280;73047;58.502;8.624;2023-09-30T11:36:15;100026.72;;;28.08;31.90
83152;BME280;73047;58.502;8.624;2023-09-30T11:38:45;100034.88;;;28.08;31.93
83152;BME280;73047;58.502;8.624;2023-09-30T11:41:12;100037.78;;;27.90;31.95
83152;BME280;73047;58.502;8.624;2023-09-30T11:43:38;100039.41;;;27.39;33.25
83152;BME280;73047;58.502;8.624;2023-09-30T11:46:12;100046.72;;;27.27;33.23
83152;BME280;73047;58.502;8.624;2023-09-30T11:48:40;100052.03;;;27.45;33.58
83152;BME280;73047;58.502;8.624;2023-09-30T11:51:22;100052.72;;;27.64;32.58
83152;BME280;73047;58.502;8.624;2023-09-30T11:53:50;100052.25;;;28.69;33.60
83152;BME280;73047;58.502;8.624;2023-09-30T11:56:16;100058.25;;;28.71;32.75
83152;BME280;73047;58.502;8.624;2023-09-30T11:58:41;100066.06;;;27.94;32.02
83152;BME280;73047;58.502;8.624;2023-09-30T12:01:06;100062.25;;;27.43;33.24
83152;BME280;73047;58.502;8.624;2023-09-30T12:03:33;100072.09;;;27.20;33.72
83152;BME280;73047;58.502;8.624;2023-09-30T12:06:04;100075.84;;;27.08;33.79
83152;BME280;73047;58.502;8.624;2023-09-30T12:08:30;100063.38;;;27.07;35.64
83152;BME280;73047;58.502;8.624;2023-09-30T12:10:55;100072.16;;;26.90;33.52
83152;BME280;73047;58.502;8.624;2023-09-30T12:13:20;100080.63;;;26.82;34.17
83152;BME280;73047;58.502;8.624;2023-09-30T12:15:46;100071.31;;;26.67;34.76
83152;BME280;73047;58.502;8.624;2023-09-30T12:18:11;100078.94;;;26.70;34.87
83152;BME280;73047;58.502;8.624;2023-09-30T12:20:39;100074.00;;;26.67;35.31
83152;BME280;73047;58.502;8.624;2023-09-30T12:23:06;100080.97;;;26.62;35.48
83152;BME280;73047;58.502;8.624;2023-09-30T12:25:32;100076.22;;;26.58;35.72
83152;BME280;73047;58.502;8.624;2023-09-30T12:27:58;100079.88;;;26.52;35.93
83152;BME280;73047;58.502;8.624;2023-09-30T12:30:24;100077.41;;;26.50;36.08
83152;BME280;73047;58.502;8.624;2023-09-30T12:32:49;100076.81;;;26.48;36.34
83152;BME280;73047;58.502;8.624;2023-09-30T12:35:14;100075.00;;;26.42;36.57
83152;BME280;73047;58.502;8.624;2023-09-30T12:37:40;100081.72;;;26.40;36.76
83152;BME280;73047;58.502;8.624;2023-09-30T12:40:08;100089.25;;;26.38;36.68
83152;BME280;73047;58.502;8.624;2023-09-30T12:42:36;100091.56;;;26.34;36.62
83152;BME280;73047;58.502;8.624;2023-09-30T12:45:02;100080.81;;;26.27;36.99
83152;BME280;73047;58.502;8.624;2023-09-30T12:47:28;100104.09;;;26.28;36.98
83152;BME280;73047;58.502;8.624;2023-09-30T12:49:53;100094.56;;;26.26;37.09
83152;BME280;73047;58.502;8.624;2023-09-30T12:52:20;100100.28;;;26.18;37.49
83152;BME280;73047;58.502;8.624;2023-09-30T12:54:46;100106.91;;;26.22;37.38
83152;BME280;73047;58.502;8.624;2023-09-30T12:57:13;100100.69;;;26.21;37.42
83152;BME280;73047;58.502;8.624;2023-09-30T12:59:43;100092.03;;;26.13;37.42
83152;BME280;73047;58.502;8.624;2023-09-30T13:02:09;100112.78;;;26.19;37.43
83152;BME280;73047;58.502;8.624;2023-09-30T13:04:35;100108.41;;;26.18;37.73
83152;BME280;73047;58.502;8.624;2023-09-30T13:07:00;100121.13;;;26.17;37.51
83152;BME280;73047;58.502;8.624;2023-09-30T13:09:25;100107.81;;;26.16;37.63
83152;BME280;73047;58.502;8.624;2023-09-30T13:11:51;100108.88;;;26.15;37.81
83152;BME280;73047;58.502;8.624;2023-09-30T13:14:16;100115.34;;;26.14;37.67